Time;durP1;ratioP1;P1;durP2;ratioP2;P2;SDS_P1;SDS_P2;PMS_P1;PMS_P2;Temp;Humidity;BMP_temperature;BMP_pressure;BME280_temperature;BME280_humidity;BME280_pressure;Samples;Min_cycle;Max_cycle;Signal;HPM_P1;HPM_P2
2024/01/07 00:00:09;;;;;;;23.37;15.03;;;9.40;99.90;;;;;;5115027;28;20218;-81
2024/01/07 00:02:38;;;;;;;24.67;15.83;;;9.40;99.90;;;;;;5114274;27;20279;-81
2024/01/07 00:05:06;;;;;;;23.13;14.20;;;9.40;99.90;;;;;;5111128;27;20204;-81
2024/01/07 00:07:34;;;;;;;19.67;12.77;;;9.40;99.90;;;;;;5097582;27;20211;-81
2024/01/07 00:10:03;;;;;;;19.17;13.17;;;9.40;99.90;;;;;;5101957;28;20220;-81
2024/01/07 00:12:31;;;;;;;21.33;13.93;;;9.40;99.90;;;;;;5106194;28;20272;-80
2024/01/07 00:14:58;;;;;;;23.23;14.50;;;9.40;99.90;;;;;;5107507;28;20707;-80
2024/01/07 00:17:26;;;;;;;20.17;12.83;;;9.50;99.90;;;;;;5107854;28;20599;-79
2024/01/07 00:19:54;;;;;;;22.10;14.20;;;9.50;99.90;;;;;;5103098;28;20228;-80
2024/01/07 00:22:22;;;;;;;22.90;14.63;;;9.40;99.90;;;;;;5110958;28;20642;-80
2024/01/07 00:24:50;;;;;;;18.53;12.63;;;9.40;99.90;;;;;;5102196;28;20251;-82
2024/01/07 00:27:18;;;;;;;18.03;12.43;;;9.40;99.90;;;;;;5107443;28;20637;-81
2024/01/07 00:29:45;;;;;;;19.33;13.37;;;9.40;99.90;;;;;;5105936;27;20212;-81
2024/01/07 00:32:13;;;;;;;19.77;13.70;;;9.40;99.90;;;;;;5104505;28;20203;-80
2024/01/07 00:34:41;;;;;;;24.30;14.77;;;9.40;99.90;;;;;;5105105;28;20675;-81
2024/01/07 00:37:09;;;;;;;21.73;15.10;;;9.40;99.90;;;;;;5111423;28;20227;-80
2024/01/07 00:39:37;;;;;;;23.87;15.13;;;9.40;99.90;;;;;;5110479;28;20238;-81
2024/01/07 00:42:05;;;;;;;22.33;15.27;;;9.40;99.90;;;;;;5105833;28;20202;-80
2024/01/07 00:44:32;;;;;;;24.33;15.57;;;9.40;99.90;;;;;;5094704;28;20207;-81
2024/01/07 00:47:02;;;;;;;23.33;14.93;;;9.40;99.90;;;;;;5125629;28;20199;-81
2024/01/07 00:49:31;;;;;;;23.33;15.83;;;9.40;99.90;;;;;;5104123;28;20203;-82
2024/01/07 00:51:58;;;;;;;23.27;15.77;;;9.30;99.90;;;;;;5093790;28;20195;-84
2024/01/07 00:54:27;;;;;;;18.67;13.43;;;9.30;99.90;;;;;;5084415;28;20263;-81
2024/01/07 00:56:55;;;;;;;20.40;13.67;;;9.30;99.90;;;;;;5100155;28;20288;-80
2024/01/07 00:59:23;;;;;;;24.90;13.73;;;9.30;99.90;;;;;;5105273;28;20220;-81
2024/01/07 01:01:51;;;;;;;22.17;13.77;;;9.30;99.90;;;;;;5094946;27;20227;-80
2024/01/07 01:04:19;;;;;;;22.47;14.40;;;9.30;99.90;;;;;;5104131;28;20198;-81
2024/01/07 01:06:48;;;;;;;25.90;13.40;;;9.30;99.90;;;;;;5088922;28;20302;-82
2024/01/07 01:09:15;;;;;;;17.30;12.00;;;9.30;99.90;;;;;;5087628;28;20214;-80
2024/01/07 01:11:43;;;;;;;21.20;12.70;;;9.30;99.90;;;;;;5086240;28;20211;-80
2024/01/07 01:14:11;;;;;;;21.97;13.87;;;9.30;99.90;;;;;;5095561;28;20207;-80
2024/01/07 01:16:38;;;;;;;24.07;13.20;;;9.30;99.90;;;;;;5093022;28;20223;-80
2024/01/07 01:19:06;;;;;;;19.33;12.47;;;9.30;99.90;;;;;;5098908;28;20227;-80
2024/01/07 01:21:35;;;;;;;16.93;11.40;;;9.30;99.90;;;;;;5106996;28;20191;-80
2024/01/07 01:24:03;;;;;;;18.40;11.97;;;9.30;99.90;;;;;;5100169;28;20214;-80
2024/01/07 01:26:30;;;;;;;17.03;11.20;;;9.30;99.90;;;;;;5087229;28;20294;-82
2024/01/07 01:28:58;;;;;;;15.40;9.90;;;9.30;99.90;;;;;;5087998;28;20283;-81
2024/01/07 01:31:25;;;;;;;17.17;11.13;;;9.30;99.90;;;;;;5092629;28;20245;-81
2024/01/07 01:33:53;;;;;;;13.57;9.77;;;9.30;99.90;;;;;;5094122;28;20206;-81
2024/01/07 01:36:22;;;;;;;15.23;9.83;;;9.30;99.90;;;;;;5094509;28;20200;-81
2024/01/07 01:38:49;;;;;;;13.77;9.20;;;9.30;99.90;;;;;;5087351;28;20246;-80
2024/01/07 01:41:17;;;;;;;13.33;9.33;;;9.30;99.90;;;;;;5065934;28;20541;-80
2024/01/07 01:43:45;;;;;;;13.53;8.70;;;9.20;99.90;;;;;;5062474;28;20231;-81
2024/01/07 01:46:13;;;;;;;12.40;8.10;;;9.30;99.90;;;;;;5052948;28;20303;-83
2024/01/07 01:48:42;;;;;;;12.03;7.93;;;9.20;99.90;;;;;;5070613;28;20286;-81
2024/01/07 01:51:10;;;;;;;11.63;7.57;;;9.20;99.90;;;;;;5073386;28;20211;-82
2024/01/07 01:53:39;;;;;;;11.63;7.23;;;9.20;99.90;;;;;;5071258;28;20204;-82
2024/01/07 01:56:06;;;;;;;14.93;7.53;;;9.20;99.90;;;;;;5053245;28;20204;-81
2024/01/07 01:58:34;;;;;;;10.37;7.67;;;9.20;99.90;;;;;;5060721;28;20225;-82
2024/01/07 02:01:03;;;;;;;11.77;7.47;;;9.20;99.90;;;;;;5062428;28;20199;-83
2024/01/07 02:03:32;;;;;;;10.23;6.73;;;9.20;99.90;;;;;;5055242;28;20215;-83
2024/01/07 02:05:59;;;;;;;11.80;6.17;;;9.10;99.90;;;;;;5069309;28;20643;-81
2024/01/07 02:08:27;;;;;;;10.73;7.20;;;9.10;99.90;;;;;;5073363;28;20534;-81
2024/01/07 02:10:54;;;;;;;9.80;6.57;;;9.10;99.90;;;;;;5078570;28;20211;-83
2024/01/07 02:13:22;;;;;;;10.77;6.70;;;9.10;99.90;;;;;;5057055;28;20217;-81
2024/01/07 02:15:51;;;;;;;11.23;6.13;;;9.10;99.90;;;;;;5072767;28;20226;-81
2024/01/07 02:18:18;;;;;;;11.40;6.93;;;9.10;99.90;;;;;;5073310;28;20270;-81
2024/01/07 02:20:46;;;;;;;9.67;6.57;;;9.10;99.90;;;;;;5057286;28;20214;-81
2024/01/07 02:23:14;;;;;;;9.23;5.63;;;9.10;99.90;;;;;;5069991;28;20653;-81
2024/01/07 02:25:41;;;;;;;9.80;6.37;;;9.10;99.90;;;;;;5059454;28;20263;-83
2024/01/07 02:28:09;;;;;;;8.33;6.37;;;9.00;99.90;;;;;;5072343;28;20260;-83
2024/01/07 02:30:37;;;;;;;7.43;5.47;;;9.00;99.90;;;;;;5051386;28;20268;-83
2024/01/07 02:33:06;;;;;;;7.13;5.23;;;9.00;99.90;;;;;;5069139;28;20211;-82
2024/01/07 02:35:33;;;;;;;7.60;5.00;;;9.00;99.90;;;;;;5065465;28;20541;-81
2024/01/07 02:38:01;;;;;;;8.40;5.60;;;9.00;99.90;;;;;;5070896;28;20213;-82
2024/01/07 02:40:28;;;;;;;8.60;4.80;;;9.00;99.90;;;;;;5081366;28;20567;-81
2024/01/07 02:42:56;;;;;;;8.37;5.23;;;9.00;99.90;;;;;;5092862;28;20578;-83
2024/01/07 02:45:27;;;;;;;7.00;4.90;;;9.00;99.90;;;;;;5084798;28;20210;-82
2024/01/07 02:47:54;;;;;;;4.93;4.43;;;9.00;99.90;;;;;;5091780;28;20634;-82
2024/01/07 02:50:23;;;;;;;7.23;5.00;;;9.00;99.90;;;;;;5094343;28;20253;-84
2024/01/07 02:52:51;;;;;;;7.30;5.13;;;9.00;99.90;;;;;;5087708;28;20207;-81
2024/01/07 02:55:18;;;;;;;10.87;5.87;;;9.00;99.90;;;;;;5095498;28;20201;-83
2024/01/07 02:57:45;;;;;;;11.17;7.13;;;9.00;99.90;;;;;;5073875;28;20310;-82
2024/01/07 03:00:13;;;;;;;9.77;6.47;;;9.00;99.90;;;;;;5095743;28;20219;-83
2024/01/07 03:02:41;;;;;;;11.40;7.50;;;9.00;99.90;;;;;;5092590;28;20208;-82
2024/01/07 03:05:09;;;;;;;17.07;8.17;;;9.00;99.90;;;;;;5091356;28;20550;-81
2024/01/07 03:07:39;;;;;;;12.47;9.03;;;9.00;99.90;;;;;;5087245;28;20202;-82
2024/01/07 03:10:08;;;;;;;16.63;10.27;;;9.00;99.90;;;;;;5100327;27;20210;-82
2024/01/07 03:12:36;;;;;;;15.00;9.77;;;9.00;99.90;;;;;;5086768;28;20263;-82
2024/01/07 03:15:05;;;;;;;13.83;10.50;;;9.00;99.90;;;;;;5076759;28;20273;-83
2024/01/07 03:17:33;;;;;;;17.83;10.80;;;9.00;99.90;;;;;;5082979;28;20271;-82
2024/01/07 03:20:01;;;;;;;15.47;10.07;;;9.00;99.90;;;;;;5077897;28;20571;-82
2024/01/07 03:22:29;;;;;;;14.03;10.33;;;9.00;99.90;;;;;;5087539;28;20202;-82
2024/01/07 03:24:56;;;;;;;18.17;10.67;;;8.90;99.90;;;;;;5073993;28;20243;-82
2024/01/07 03:27:24;;;;;;;13.43;9.90;;;8.90;99.90;;;;;;5089096;28;20204;-82
2024/01/07 03:29:53;;;;;;;14.77;10.10;;;8.90;99.90;;;;;;5091176;28;20210;-81
2024/01/07 03:32:21;;;;;;;12.80;9.40;;;8.90;99.90;;;;;;5080093;28;20259;-83
2024/01/07 03:34:48;;;;;;;15.87;9.93;;;8.90;99.90;;;;;;5097030;28;20235;-82
2024/01/07 03:37:17;;;;;;;14.70;10.27;;;8.90;99.90;;;;;;5079275;28;20205;-82
2024/01/07 03:39:47;;;;;;;12.27;8.50;;;8.90;99.90;;;;;;5061705;28;20241;-83
2024/01/07 03:42:15;;;;;;;14.20;8.13;;;8.90;99.90;;;;;;5054545;28;20219;-82
2024/01/07 03:44:43;;;;;;;13.80;8.97;;;8.90;99.90;;;;;;5050614;28;20258;-81
2024/01/07 03:47:10;;;;;;;13.37;9.17;;;8.90;99.90;;;;;;5067611;28;20207;-81
2024/01/07 03:49:38;;;;;;;11.67;8.20;;;8.90;99.90;;;;;;5067137;28;20562;-82
2024/01/07 03:52:07;;;;;;;10.90;8.37;;;8.90;99.90;;;;;;5066692;28;20206;-81
2024/01/07 03:54:35;;;;;;;12.07;7.83;;;8.80;99.90;;;;;;5066723;28;20214;-82
2024/01/07 03:57:02;;;;;;;13.37;8.30;;;8.80;99.90;;;;;;5069243;28;20681;-81
2024/01/07 03:59:30;;;;;;;11.40;8.30;;;8.90;99.90;;;;;;5070184;28;20222;-82
2024/01/07 04:01:58;;;;;;;11.77;7.50;;;8.90;99.90;;;;;;5061291;28;20548;-81
2024/01/07 04:04:25;;;;;;;12.27;8.90;;;8.80;99.90;;;;;;5070963;28;20587;-82
2024/01/07 04:06:53;;;;;;;11.87;7.93;;;8.90;99.90;;;;;;5068840;28;20236;-81
2024/01/07 04:09:21;;;;;;;10.87;7.83;;;8.90;99.90;;;;;;5066134;28;20202;-81
2024/01/07 04:11:50;;;;;;;12.40;7.00;;;8.90;99.90;;;;;;5063667;28;20218;-82
2024/01/07 04:14:18;;;;;;;11.37;8.23;;;8.90;99.90;;;;;;5069286;28;20214;-82
2024/01/07 04:16:46;;;;;;;13.37;7.30;;;8.90;99.90;;;;;;5066374;28;20651;-81
2024/01/07 04:19:13;;;;;;;11.83;7.77;;;8.80;99.90;;;;;;5073954;28;20292;-82
2024/01/07 04:21:46;;;;;;;13.13;7.73;;;8.90;99.90;;;;;;5071289;28;20229;-82
2024/01/07 04:24:14;;;;;;;9.23;6.70;;;8.80;99.90;;;;;;5060178;28;20263;-83
2024/01/07 04:26:42;;;;;;;12.63;7.37;;;8.80;99.90;;;;;;5069474;28;20355;-81
2024/01/07 04:29:09;;;;;;;10.00;7.13;;;8.80;99.90;;;;;;5064605;28;20228;-81
2024/01/07 04:31:37;;;;;;;9.70;7.10;;;8.80;99.90;;;;;;5072885;28;20194;-81
2024/01/07 04:34:05;;;;;;;9.23;7.10;;;8.80;99.90;;;;;;5054310;28;20708;-82
2024/01/07 04:36:33;;;;;;;11.10;7.27;;;8.80;99.90;;;;;;5066886;28;20202;-82
2024/01/07 04:39:01;;;;;;;10.83;7.07;;;8.80;99.90;;;;;;5078965;28;20287;-82
2024/01/07 04:41:28;;;;;;;9.57;6.93;;;8.80;99.90;;;;;;5088747;28;20283;-82
2024/01/07 04:43:56;;;;;;;9.67;6.60;;;8.80;99.90;;;;;;5091461;28;20306;-81
2024/01/07 04:46:23;;;;;;;8.60;6.03;;;8.80;99.90;;;;;;5089432;28;20274;-81
2024/01/07 04:48:51;;;;;;;7.77;5.83;;;8.80;99.90;;;;;;5093006;28;20209;-82
2024/01/07 04:51:19;;;;;;;9.63;6.63;;;8.80;99.90;;;;;;5089844;28;20206;-81
2024/01/07 04:53:48;;;;;;;9.20;6.03;;;8.80;99.90;;;;;;5084812;28;20232;-82
2024/01/07 04:56:15;;;;;;;7.70;5.53;;;8.70;99.90;;;;;;5094452;28;20206;-82
2024/01/07 04:58:43;;;;;;;8.30;5.77;;;8.70;99.90;;;;;;5090898;28;20590;-82
2024/01/07 05:01:10;;;;;;;9.20;5.70;;;8.80;99.90;;;;;;5100684;28;20239;-82
2024/01/07 05:03:38;;;;;;;7.40;4.47;;;8.70;99.90;;;;;;5079441;28;20198;-81
2024/01/07 05:06:09;;;;;;;6.13;4.43;;;8.70;99.90;;;;;;5083975;28;20246;-81
2024/01/07 05:08:37;;;;;;;4.87;3.60;;;8.70;99.90;;;;;;5087224;28;20227;-81
2024/01/07 05:11:05;;;;;;;7.37;4.40;;;8.70;99.90;;;;;;5085316;28;20271;-82
2024/01/07 05:13:32;;;;;;;3.97;3.13;;;8.70;99.90;;;;;;5093376;28;20213;-82
2024/01/07 05:16:00;;;;;;;4.80;3.50;;;8.70;99.90;;;;;;5093323;28;20205;-82
2024/01/07 05:18:27;;;;;;;6.13;3.27;;;8.80;99.90;;;;;;5096382;28;20241;-83
2024/01/07 05:20:55;;;;;;;5.30;2.77;;;8.80;99.90;;;;;;5091189;28;20275;-82
2024/01/07 05:23:22;;;;;;;5.23;3.13;;;8.80;99.90;;;;;;5083725;28;20260;-82
2024/01/07 05:25:50;;;;;;;3.83;2.33;;;8.80;99.90;;;;;;5084087;28;20204;-82
2024/01/07 05:28:19;;;;;;;2.83;2.57;;;8.80;99.90;;;;;;5090187;28;20256;-81
2024/01/07 05:30:47;;;;;;;3.93;2.43;;;8.80;99.90;;;;;;5094488;28;20228;-83
2024/01/07 05:33:15;;;;;;;2.97;2.30;;;8.80;99.90;;;;;;5096266;28;20209;-81
2024/01/07 05:35:42;;;;;;;3.10;2.50;;;8.80;99.90;;;;;;5092233;28;20233;-83
2024/01/07 05:38:10;;;;;;;3.50;2.60;;;8.80;99.90;;;;;;5078768;28;20205;-83
2024/01/07 05:40:37;;;;;;;3.00;2.43;;;8.80;99.90;;;;;;5094675;28;20222;-82
2024/01/07 05:43:04;;;;;;;3.90;2.47;;;8.80;99.90;;;;;;5088045;28;20201;-82
2024/01/07 05:45:32;;;;;;;4.97;2.60;;;8.80;99.90;;;;;;5102557;28;20206;-83
2024/01/07 05:47:59;;;;;;;3.73;2.70;;;8.70;99.90;;;;;;5095642;28;20580;-81
2024/01/07 05:50:27;;;;;;;2.23;2.03;;;8.80;99.90;;;;;;5089306;28;20214;-83
2024/01/07 05:52:54;;;;;;;3.53;2.17;;;8.80;99.90;;;;;;5095724;28;20204;-82
2024/01/07 05:55:22;;;;;;;2.40;1.67;;;8.70;99.90;;;;;;5114758;27;20743;-82
2024/01/07 05:57:50;;;;;;;1.93;1.70;;;8.70;99.90;;;;;;5088193;28;20209;-82
2024/01/07 06:00:20;;;;;;;2.53;1.47;;;8.80;99.90;;;;;;5093468;28;20236;-82
2024/01/07 06:02:47;;;;;;;2.03;1.80;;;8.70;99.90;;;;;;5097791;28;20198;-82
2024/01/07 06:05:15;;;;;;;1.17;1.10;;;8.70;99.90;;;;;;5083421;28;20625;-82
2024/01/07 06:07:43;;;;;;;1.93;1.17;;;8.70;99.90;;;;;;5086739;28;20203;-82
2024/01/07 06:10:11;;;;;;;2.00;1.13;;;8.70;99.90;;;;;;5078615;28;20212;-82
2024/01/07 06:12:39;;;;;;;1.80;1.13;;;8.70;99.90;;;;;;5098015;28;20301;-82
2024/01/07 06:15:07;;;;;;;2.77;1.00;;;8.70;99.90;;;;;;5076236;28;20218;-82
2024/01/07 06:17:35;;;;;;;1.10;0.90;;;8.70;99.90;;;;;;5088948;28;20214;-81
2024/01/07 06:20:03;;;;;;;4.67;1.40;;;8.60;99.90;;;;;;5100941;27;20240;-82
2024/01/07 06:22:31;;;;;;;0.73;0.73;;;8.60;99.90;;;;;;5094722;28;20269;-82
2024/01/07 06:24:58;;;;;;;1.33;0.90;;;8.60;99.90;;;;;;5081891;28;20198;-82
2024/01/07 06:27:27;;;;;;;2.27;0.87;;;8.60;99.90;;;;;;5075259;28;20204;-81
2024/01/07 06:29:55;;;;;;;1.80;0.60;;;8.60;99.90;;;;;;5068466;28;20281;-82
2024/01/07 06:32:22;;;;;;;0.60;0.60;;;8.60;99.90;;;;;;5088050;28;20241;-83
2024/01/07 06:34:50;;;;;;;1.23;1.03;;;8.60;99.90;;;;;;5097307;28;20199;-83
2024/01/07 06:37:18;;;;;;;1.00;0.87;;;8.60;99.90;;;;;;5096461;28;20211;-82
2024/01/07 06:39:48;;;;;;;1.13;0.83;;;8.60;99.90;;;;;;5085973;28;20238;-82
2024/01/07 06:42:16;;;;;;;1.07;0.83;;;8.60;99.90;;;;;;5084094;28;20213;-82
2024/01/07 06:44:44;;;;;;;1.20;1.00;;;8.60;99.90;;;;;;5073164;28;20198;-82
2024/01/07 06:47:11;;;;;;;1.17;1.00;;;8.50;99.90;;;;;;5089230;28;20201;-82
2024/01/07 06:49:40;;;;;;;1.13;0.93;;;8.60;99.90;;;;;;5083228;28;20201;-81
2024/01/07 06:52:08;;;;;;;1.63;0.93;;;8.60;99.90;;;;;;5086072;28;20224;-83
2024/01/07 06:54:36;;;;;;;0.90;0.90;;;8.60;99.90;;;;;;5086205;28;20214;-81
2024/01/07 06:57:04;;;;;;;1.10;1.00;;;8.50;99.90;;;;;;5092800;28;20626;-82
2024/01/07 06:59:32;;;;;;;0.70;0.70;;;8.50;99.90;;;;;;5088340;28;20221;-82
2024/01/07 07:02:02;;;;;;;1.47;0.87;;;8.50;99.90;;;;;;5091622;28;20639;-82
2024/01/07 07:04:30;;;;;;;1.13;1.03;;;8.50;99.90;;;;;;5084418;28;20712;-83
2024/01/07 07:07:00;;;;;;;1.20;1.00;;;8.50;99.90;;;;;;5089212;28;20261;-83
2024/01/07 07:09:28;;;;;;;2.30;1.20;;;8.50;99.90;;;;;;5087806;28;20205;-82
2024/01/07 07:11:56;;;;;;;2.53;1.40;;;8.50;99.90;;;;;;5076035;28;20204;-82
2024/01/07 07:14:24;;;;;;;2.90;1.40;;;8.50;99.90;;;;;;5079147;28;20309;-83
2024/01/07 07:16:52;;;;;;;1.73;1.50;;;8.50;99.90;;;;;;5085099;28;20210;-84
2024/01/07 07:19:22;;;;;;;2.40;1.90;;;8.60;99.90;;;;;;5085546;28;20639;-82
2024/01/07 07:21:53;;;;;;;1.80;1.37;;;8.60;99.90;;;;;;5086238;28;20436;-83
2024/01/07 07:24:25;;;;;;;1.90;1.40;;;8.60;99.90;;;;;;5079712;28;20206;-82
2024/01/07 07:26:55;;;;;;;1.17;1.07;;;8.60;99.90;;;;;;5086102;28;20199;-83
2024/01/07 07:29:23;;;;;;;1.00;1.00;;;8.60;99.90;;;;;;5089403;28;20228;-83
2024/01/07 07:31:51;;;;;;;1.30;1.20;;;8.60;99.90;;;;;;5070867;28;20209;-83
2024/01/07 07:34:20;;;;;;;0.80;0.80;;;8.60;99.90;;;;;;5088856;28;20681;-83
2024/01/07 07:36:49;;;;;;;1.33;1.20;;;8.50;99.90;;;;;;5092623;28;20202;-80
2024/01/07 07:39:17;;;;;;;0.80;0.80;;;8.60;99.90;;;;;;5087892;28;20246;-83
2024/01/07 07:41:46;;;;;;;0.93;0.80;;;8.50;99.90;;;;;;5084567;28;20230;-82
2024/01/07 07:44:14;;;;;;;0.93;0.90;;;8.50;99.90;;;;;;5090177;28;20231;-81
2024/01/07 07:46:45;;;;;;;1.20;1.10;;;8.60;99.90;;;;;;5088118;28;20206;-81
2024/01/07 07:49:15;;;;;;;1.33;1.13;;;8.60;99.90;;;;;;5066423;28;20234;-82
2024/01/07 07:51:44;;;;;;;1.60;1.30;;;8.60;99.90;;;;;;5069332;28;20197;-81
2024/01/07 07:54:13;;;;;;;1.03;0.90;;;8.60;99.90;;;;;;5087257;28;20271;-81
2024/01/07 07:56:41;;;;;;;1.07;0.97;;;8.60;99.90;;;;;;5079392;28;20199;-81
2024/01/07 07:59:09;;;;;;;2.10;1.30;;;8.60;99.90;;;;;;5090680;28;20215;-80
2024/01/07 08:01:39;;;;;;;0.93;0.87;;;8.60;99.90;;;;;;5097000;28;20686;-80
2024/01/07 08:04:11;;;;;;;1.17;1.07;;;8.70;99.90;;;;;;5100033;28;20200;-81
2024/01/07 08:06:42;;;;;;;1.67;1.30;;;8.70;99.90;;;;;;5078656;28;20207;-83
2024/01/07 08:09:14;;;;;;;1.37;1.20;;;8.70;99.90;;;;;;5080381;28;20259;-82
2024/01/07 08:11:45;;;;;;;3.10;1.00;;;8.70;99.90;;;;;;5086321;28;20705;-82
2024/01/07 08:14:13;;;;;;;1.30;1.10;;;8.70;99.90;;;;;;5093910;28;20226;-82
2024/01/07 08:16:42;;;;;;;1.10;1.00;;;8.70;99.90;;;;;;5072554;28;20223;-82
2024/01/07 08:19:13;;;;;;;0.80;0.80;;;8.70;99.90;;;;;;5088933;28;20207;-81
2024/01/07 08:21:41;;;;;;;1.03;0.93;;;8.70;99.90;;;;;;5088330;28;20239;-82
2024/01/07 08:24:11;;;;;;;0.77;0.70;;;8.70;99.90;;;;;;5080121;28;20199;-81
2024/01/07 08:26:40;;;;;;;1.83;1.07;;;8.80;99.90;;;;;;5092806;28;20203;-83
2024/01/07 08:29:08;;;;;;;4.17;1.07;;;8.80;99.90;;;;;;5092678;28;20204;-81
2024/01/07 08:31:42;;;;;;;4.00;1.43;;;8.80;99.90;;;;;;5096778;28;20224;-82
2024/01/07 08:34:10;;;;;;;0.93;0.93;;;8.80;99.90;;;;;;5088436;28;20236;-82
2024/01/07 08:36:38;;;;;;;1.33;1.20;;;8.80;99.90;;;;;;5104838;28;20210;-83
2024/01/07 08:39:08;;;;;;;2.93;1.00;;;8.90;99.90;;;;;;5076244;28;20240;-82
2024/01/07 08:41:40;;;;;;;1.20;1.10;;;8.80;99.90;;;;;;5051113;28;20219;-81
2024/01/07 08:44:08;;;;;;;1.90;1.50;;;8.80;99.90;;;;;;5072473;28;20212;-82
2024/01/07 08:46:38;;;;;;;1.70;1.20;;;8.90;99.90;;;;;;5069620;28;20199;-82
2024/01/07 08:49:06;;;;;;;2.40;2.20;;;8.90;99.90;;;;;;5069417;28;20219;-82
2024/01/07 08:51:35;;;;;;;1.63;1.53;;;8.90;99.90;;;;;;5053054;28;20198;-82
2024/01/07 08:54:05;;;;;;;1.37;1.13;;;8.90;99.90;;;;;;5065145;28;20554;-82
2024/01/07 08:56:33;;;;;;;2.73;1.20;;;8.90;99.90;;;;;;5076755;28;20214;-82
2024/01/07 08:59:01;;;;;;;1.50;1.40;;;8.90;99.90;;;;;;5076035;28;20238;-82
2024/01/07 09:01:30;;;;;;;1.70;1.60;;;8.90;99.90;;;;;;5065280;28;20228;-82
2024/01/07 09:04:01;;;;;;;1.57;1.27;;;8.90;99.90;;;;;;5069552;28;20278;-82
2024/01/07 09:06:37;;;;;;;1.83;1.30;;;8.90;99.90;;;;;;5060738;28;20296;-83
2024/01/07 09:09:10;;;;;;;1.40;1.00;;;8.90;99.90;;;;;;5067047;28;20262;-83
2024/01/07 09:11:42;;;;;;;1.43;1.13;;;8.90;99.90;;;;;;5061805;28;20222;-82
2024/01/07 09:14:11;;;;;;;1.23;1.13;;;8.90;99.90;;;;;;5072679;28;20208;-83
2024/01/07 09:16:42;;;;;;;1.90;1.00;;;8.90;99.90;;;;;;5065056;28;20217;-80
2024/01/07 09:19:17;;;;;;;2.13;0.93;;;8.90;99.90;;;;;;5072171;28;20507;-81
2024/01/07 09:21:48;;;;;;;1.60;1.20;;;8.90;99.90;;;;;;5062325;28;20276;-82
2024/01/07 09:24:24;;;;;;;1.43;1.30;;;8.90;99.90;;;;;;5073931;28;20308;-81
2024/01/07 09:26:56;;;;;;;1.20;1.00;;;8.90;99.90;;;;;;5076995;28;20203;-82
2024/01/07 09:29:30;;;;;;;1.60;1.30;;;8.90;99.90;;;;;;5071987;28;20276;-81
2024/01/07 09:32:09;;;;;;;1.40;1.30;;;8.90;99.90;;;;;;5075691;28;20202;-81
2024/01/07 09:34:45;;;;;;;2.03;1.40;;;8.90;99.90;;;;;;5053859;28;20208;-83
2024/01/07 09:37:17;;;;;;;1.30;1.20;;;8.90;99.90;;;;;;5064862;28;20214;-81
2024/01/07 09:39:49;;;;;;;1.27;1.13;;;8.90;99.90;;;;;;5079784;28;20682;-82
2024/01/07 09:42:19;;;;;;;2.37;1.70;;;8.90;99.90;;;;;;5088675;28;20236;-82
2024/01/07 09:44:51;;;;;;;2.63;1.43;;;8.80;99.90;;;;;;5096456;28;20205;-83
2024/01/07 09:47:23;;;;;;;1.80;1.23;;;8.90;99.90;;;;;;5088379;28;20215;-82
2024/01/07 09:49:55;;;;;;;2.83;1.87;;;8.90;99.90;;;;;;5088078;28;20201;-82
2024/01/07 09:52:26;;;;;;;2.30;1.60;;;8.90;99.90;;;;;;5071964;28;20261;-82
2024/01/07 09:55:02;;;;;;;2.27;2.07;;;8.90;99.90;;;;;;5089611;28;20539;-82
2024/01/07 09:57:34;;;;;;;2.50;1.73;;;9.00;99.90;;;;;;5087465;28;20209;-82
2024/01/07 10:00:06;;;;;;;2.43;2.10;;;9.00;99.90;;;;;;5101552;28;20711;-82
2024/01/07 10:02:48;;;;;;;2.37;2.03;;;9.00;99.90;;;;;;5094244;28;20265;-82
2024/01/07 10:05:21;;;;;;;3.33;2.10;;;9.00;99.90;;;;;;5095640;28;20291;-81
2024/01/07 10:07:54;;;;;;;3.07;2.53;;;9.00;99.90;;;;;;5089287;28;20199;-82
2024/01/07 10:10:25;;;;;;;3.67;2.47;;;9.00;99.90;;;;;;5080443;28;20201;-82
2024/01/07 10:12:56;;;;;;;2.33;1.90;;;9.00;99.90;;;;;;5081398;28;20201;-82
2024/01/07 10:15:27;;;;;;;3.03;2.07;;;9.00;99.90;;;;;;5085091;28;20262;-82
2024/01/07 10:18:05;;;;;;;3.10;2.10;;;9.00;99.90;;;;;;5091644;28;20204;-82
2024/01/07 10:20:39;;;;;;;2.10;1.90;;;9.00;99.90;;;;;;5096134;28;20551;-82
2024/01/07 10:23:13;;;;;;;3.10;2.60;;;9.00;99.90;;;;;;5088510;28;20208;-83
2024/01/07 10:25:47;;;;;;;3.53;2.47;;;9.00;99.90;;;;;;5079290;28;20301;-82
2024/01/07 10:28:19;;;;;;;4.30;2.33;;;9.00;99.90;;;;;;5083902;28;20261;-82
2024/01/07 10:30:52;;;;;;;3.33;2.40;;;9.00;99.90;;;;;;5085597;28;20207;-82
2024/01/07 10:33:30;;;;;;;2.53;2.20;;;9.00;99.90;;;;;;5087165;28;20296;-82
2024/01/07 10:36:12;;;;;;;5.30;2.77;;;9.00;99.90;;;;;;5091227;28;20636;-81
2024/01/07 10:38:45;;;;;;;3.53;2.60;;;9.10;99.90;;;;;;5091052;28;20342;-83
2024/01/07 10:41:25;;;;;;;2.90;2.63;;;9.10;99.90;;;;;;5086489;28;20552;-82
2024/01/07 10:43:56;;;;;;;4.33;2.20;;;9.00;99.90;;;;;;5084523;28;20219;-83
2024/01/07 10:46:30;;;;;;;3.03;2.33;;;9.00;99.90;;;;;;5076586;28;20627;-82
2024/01/07 10:49:08;;;;;;;3.23;2.73;;;9.00;99.90;;;;;;5082216;28;20213;-83
2024/01/07 10:51:40;;;;;;;2.90;2.60;;;9.00;99.90;;;;;;5096879;28;20230;-81
2024/01/07 10:54:16;;;;;;;3.27;2.50;;;9.00;99.90;;;;;;5077152;28;20226;-82
2024/01/07 10:56:48;;;;;;;3.60;2.70;;;9.00;99.90;;;;;;5080627;28;20227;-83
2024/01/07 10:59:21;;;;;;;3.40;2.90;;;9.00;99.90;;;;;;5095578;28;20208;-83
2024/01/07 11:01:52;;;;;;;4.27;3.40;;;9.00;99.90;;;;;;5088929;28;20232;-83
2024/01/07 11:04:51;;;;;;;3.90;3.27;;;9.00;99.90;;;;;;5087625;28;20423;-81
2024/01/07 11:07:37;;;;;;;4.50;3.13;;;9.00;99.90;;;;;;5090852;28;20232;-82
2024/01/07 11:10:25;;;;;;;4.60;3.63;;;9.00;99.90;;;;;;5085333;28;20196;-82
2024/01/07 11:13:06;;;;;;;3.60;3.20;;;9.00;99.90;;;;;;5078413;28;20218;-83
2024/01/07 11:16:10;;;;;;;5.90;3.93;;;9.00;99.90;;;;;;5085182;28;20278;-82
2024/01/07 11:18:51;;;;;;;5.40;3.97;;;9.00;99.90;;;;;;5073357;28;20305;-82
2024/01/07 11:21:26;;;;;;;4.40;3.90;;;9.00;99.90;;;;;;5076758;28;20213;-82
2024/01/07 11:24:06;;;;;;;5.43;3.67;;;9.00;99.90;;;;;;5083572;28;20201;-82
2024/01/07 11:26:37;;;;;;;6.00;4.37;;;9.10;99.90;;;;;;5080784;28;20263;-82
2024/01/07 11:29:10;;;;;;;10.80;4.63;;;9.10;99.90;;;;;;5072975;28;20207;-82
2024/01/07 11:31:50;;;;;;;9.83;4.77;;;9.10;99.90;;;;;;5088038;28;20285;-81
2024/01/07 11:34:43;;;;;;;6.00;4.43;;;9.10;99.90;;;;;;5089021;28;20204;-82
2024/01/07 11:37:20;;;;;;;5.97;4.60;;;9.10;99.90;;;;;;5066614;28;20294;-81
2024/01/07 11:40:00;;;;;;;5.70;4.27;;;9.10;99.90;;;;;;5072648;28;20238;-82
2024/01/07 11:42:32;;;;;;;6.57;3.97;;;9.10;99.90;;;;;;5063330;28;20683;-82
2024/01/07 11:45:10;;;;;;;6.83;4.13;;;9.10;99.90;;;;;;5071864;28;20215;-82
2024/01/07 11:47:43;;;;;;;5.77;4.33;;;9.10;99.90;;;;;;5056647;28;20263;-81
2024/01/07 11:50:13;;;;;;;5.37;4.77;;;9.20;99.90;;;;;;5063403;28;20207;-82
2024/01/07 11:52:50;;;;;;;6.10;4.63;;;9.20;99.90;;;;;;5057123;28;20220;-83
2024/01/07 11:55:21;;;;;;;7.43;4.90;;;9.20;99.90;;;;;;5046625;28;20206;-82
2024/01/07 11:57:52;;;;;;;9.30;4.83;;;9.20;99.90;;;;;;5064556;28;20328;-81
2024/01/07 12:00:25;;;;;;;6.30;4.87;;;9.30;99.90;;;;;;5050624;28;20205;-82
2024/01/07 12:02:56;;;;;;;5.83;4.57;;;9.30;99.90;;;;;;5059646;28;20607;-82
2024/01/07 12:05:28;;;;;;;6.57;5.23;;;9.30;99.90;;;;;;5044196;28;20205;-81
2024/01/07 12:08:00;;;;;;;7.33;5.37;;;9.30;99.90;;;;;;5071418;28;20194;-82
2024/01/07 12:10:30;;;;;;;6.00;4.80;;;9.40;99.90;;;;;;5049656;28;20206;-81
2024/01/07 12:13:01;;;;;;;6.30;4.73;;;9.40;99.90;;;;;;5056771;28;20208;-81
2024/01/07 12:15:33;;;;;;;5.23;4.57;;;9.40;99.90;;;;;;5044748;28;20302;-82
2024/01/07 12:18:05;;;;;;;4.87;4.23;;;9.40;99.90;;;;;;5073130;28;20309;-80
2024/01/07 12:20:39;;;;;;;5.37;4.37;;;9.50;99.90;;;;;;5052384;28;20216;-82
2024/01/07 12:23:12;;;;;;;6.97;4.40;;;9.50;99.90;;;;;;5065075;28;20224;-81
2024/01/07 12:25:42;;;;;;;6.60;5.03;;;9.50;99.90;;;;;;5062749;28;20205;-81
2024/01/07 12:28:13;;;;;;;8.73;4.00;;;9.50;99.90;;;;;;5075751;28;20524;-81
2024/01/07 12:30:43;;;;;;;6.30;4.70;;;9.50;99.90;;;;;;5075766;28;20298;-81
2024/01/07 12:33:15;;;;;;;6.43;4.30;;;9.50;99.90;;;;;;5066272;28;20209;-81
2024/01/07 12:35:49;;;;;;;5.10;4.17;;;9.50;99.90;;;;;;5056309;28;20310;-80
2024/01/07 12:38:24;;;;;;;7.37;4.47;;;9.50;99.90;;;;;;5063309;28;20242;-81
2024/01/07 12:40:58;;;;;;;5.93;4.40;;;9.50;99.90;;;;;;5079848;28;20655;-80
2024/01/07 12:43:32;;;;;;;4.90;4.10;;;9.50;99.90;;;;;;5086570;28;20568;-79
2024/01/07 12:46:22;;;;;;;7.13;4.60;;;9.60;99.90;;;;;;5085776;28;20242;-81
2024/01/07 12:48:59;;;;;;;4.53;4.10;;;9.60;99.90;;;;;;5071850;28;20208;-81
2024/01/07 12:51:30;;;;;;;6.50;4.57;;;9.60;99.90;;;;;;5080593;28;20659;-81
2024/01/07 12:54:03;;;;;;;6.40;4.67;;;9.60;99.90;;;;;;5086909;28;20205;-80
2024/01/07 12:56:34;;;;;;;7.17;4.70;;;9.60;99.90;;;;;;5079170;28;20228;-81
2024/01/07 12:59:05;;;;;;;6.03;4.77;;;9.60;99.90;;;;;;5074476;28;20204;-80
2024/01/07 13:01:36;;;;;;;6.83;4.73;;;9.60;99.90;;;;;;5088997;28;20201;-81
2024/01/07 13:04:11;;;;;;;7.67;4.20;;;9.50;99.90;;;;;;5085608;28;20217;-81
2024/01/07 13:06:42;;;;;;;9.47;4.50;;;9.60;99.90;;;;;;5089571;28;20203;-81